Time;durP1;ratioP1;P1;durP2;ratioP2;P2;SDS_P1;SDS_P2;PMS_P1;PMS_P2;Temp;Humidity;BMP_temperature;BMP_pressure;BME280_temperature;BME280_humidity;BME280_pressure;Samples;Min_cycle;Max_cycle;Signal;HPM_P1;HPM_P2
2023/08/04 00:00:56;;;;;;;5.72;3.25;;;;;;;21.35;100.00;99720.66;5028014;28;20021;-77
2023/08/04 00:03:22;;;;;;;7.15;2.72;;;;;;;21.38;100.00;99726.31;5045764;28;20021;-76
2023/08/04 00:05:47;;;;;;;8.88;3.38;;;;;;;21.41;100.00;99725.84;5044464;28;20028;-77
2023/08/04 00:08:13;;;;;;;7.53;2.53;;;;;;;21.38;100.00;99733.44;5032892;28;20028;-76
2023/08/04 00:10:38;;;;;;;4.53;2.45;;;;;;;21.37;100.00;99734.47;5029199;28;20033;-75
2023/08/04 00:13:04;;;;;;;8.55;3.17;;;;;;;21.36;100.00;99725.72;5030261;28;20032;-76
2023/08/04 00:15:29;;;;;;;11.50;3.58;;;;;;;21.35;100.00;99724.13;5027732;28;20120;-77
2023/08/04 00:17:56;;;;;;;7.00;3.17;;;;;;;21.39;100.00;99722.63;5025865;28;20048;-76
2023/08/04 00:20:21;;;;;;;8.27;3.40;;;;;;;21.41;100.00;99717.88;5032745;28;20029;-76
2023/08/04 00:22:47;;;;;;;7.50;3.60;;;;;;;21.45;100.00;99711.09;5030504;28;20147;-76
2023/08/04 00:25:12;;;;;;;7.72;3.38;;;;;;;21.46;100.00;99696.78;5029582;28;20116;-76
2023/08/04 00:27:38;;;;;;;6.25;4.05;;;;;;;21.47;100.00;99703.72;5032736;28;20029;-76
2023/08/04 00:30:03;;;;;;;10.93;3.35;;;;;;;21.47;100.00;99718.81;5027010;28;20041;-76
2023/08/04 00:32:29;;;;;;;15.43;4.57;;;;;;;21.52;100.00;99693.22;5035006;28;20025;-79
2023/08/04 00:34:54;;;;;;;10.05;4.38;;;;;;;21.48;100.00;99684.13;5045606;28;20049;-76
2023/08/04 00:37:20;;;;;;;8.68;4.10;;;;;;;21.48;100.00;99702.66;5041842;28;20108;-78
2023/08/04 00:39:45;;;;;;;8.88;3.90;;;;;;;21.53;100.00;99712.56;5040497;28;20030;-77
2023/08/04 00:42:10;;;;;;;20.67;3.50;;;;;;;21.51;100.00;99714.66;5032230;28;20087;-78
2023/08/04 00:44:36;;;;;;;5.28;2.83;;;;;;;21.51;100.00;99706.69;5043503;28;20357;-79
2023/08/04 00:47:03;;;;;;;6.70;2.28;;;;;;;21.42;100.00;99710.75;5032212;28;20033;-77
2023/08/04 00:49:29;;;;;;;5.65;2.60;;;;;;;21.33;100.00;99707.66;5031657;28;20025;-78
2023/08/04 00:51:55;;;;;;;8.55;2.88;;;;;;;21.28;100.00;99710.19;5030780;28;20037;-76
2023/08/04 00:54:22;;;;;;;5.60;2.88;;;;;;;21.26;100.00;99712.28;5029087;28;20028;-78
2023/08/04 00:56:48;;;;;;;11.00;4.35;;;;;;;21.27;100.00;99713.09;5026814;28;20044;-77
2023/08/04 00:59:14;;;;;;;6.72;3.25;;;;;;;21.31;100.00;99714.22;5030899;28;20041;-78
2023/08/04 01:01:39;;;;;;;13.40;3.13;;;;;;;21.36;100.00;99716.97;5026800;28;20056;-78
2023/08/04 01:04:05;;;;;;;15.32;3.55;;;;;;;21.36;100.00;99717.78;5029511;28;20120;-77
2023/08/04 01:06:51;;;;;;;19.42;3.08;;;;;;;21.37;100.00;99724.69;5032261;28;20021;-77
2023/08/04 01:09:29;;;;;;;;;;;;;;;21.38;100.00;99725.50;5029037;28;20059;-78
2023/08/04 01:12:18;;;;;;;8.05;2.65;;;;;;;21.40;100.00;99718.91;5025936;28;19913;-77
2023/08/04 01:14:46;;;;;;;7.07;2.78;;;;;;;21.41;100.00;99717.88;5027021;28;20046;-77
2023/08/04 01:17:28;;;;;;;15.80;3.45;;;;;;;21.44;100.00;99711.31;5026204;28;20080;-77
2023/08/04 01:19:54;;;;;;;8.27;3.72;;;;;;;21.46;100.00;99710.03;5027520;28;20136;-77
2023/08/04 01:22:21;;;;;;;9.68;4.40;;;;;;;21.48;100.00;99717.75;5031381;28;20041;-77
2023/08/04 01:24:47;;;;;;;17.73;4.05;;;;;;;21.50;100.00;99708.53;5023869;28;20037;-77
2023/08/04 01:27:16;;;;;;;10.27;3.50;;;;;;;21.51;100.00;99709.34;5027883;28;20029;-77
2023/08/04 01:29:44;;;;;;;9.95;3.80;;;;;;;21.53;100.00;99713.38;5029546;28;20032;-78
2023/08/04 01:32:09;;;;;;;10.93;3.60;;;;;;;21.55;100.00;99704.38;5022872;28;20033;-78
2023/08/04 01:34:35;;;;;;;9.93;3.88;;;;;;;21.58;100.00;99703.91;5031621;28;20033;-77
2023/08/04 01:37:00;;;;;;;10.13;3.97;;;;;;;21.59;100.00;99710.84;5031158;28;20033;-76
2023/08/04 01:39:26;;;;;;;12.73;4.03;;;;;;;21.59;100.00;99700.22;5025747;28;20094;-76
2023/08/04 01:41:51;;;;;;;12.13;3.78;;;;;;;21.61;100.00;99704.25;5023689;28;20037;-76
2023/08/04 01:44:17;;;;;;;9.30;4.25;;;;;;;21.63;100.00;99701.38;5025004;28;20033;-76
2023/08/04 01:46:42;;;;;;;8.40;3.45;;;;;;;21.62;100.00;99702.41;5025504;28;20029;-77
2023/08/04 01:49:09;;;;;;;7.88;3.97;;;;;;;21.62;100.00;99700.56;5030050;28;20037;-77
2023/08/04 01:51:35;;;;;;;7.00;3.25;;;;;;;21.60;100.00;99701.84;5030153;28;20071;-77
2023/08/04 01:54:01;;;;;;;8.10;3.80;;;;;;;21.60;100.00;99707.13;5028226;28;20074;-78
2023/08/04 01:56:26;;;;;;;12.88;3.78;;;;;;;21.58;100.00;99709.22;5026697;28;20034;-78
2023/08/04 01:58:52;;;;;;;9.50;3.95;;;;;;;21.57;100.00;99712.91;5023214;28;20034;-77
2023/08/04 02:01:18;;;;;;;5.95;3.10;;;;;;;21.55;100.00;99710.50;5016891;28;20034;-77
2023/08/04 02:03:43;;;;;;;11.95;3.38;;;;;;;21.56;100.00;99713.94;5030128;28;20128;-77
2023/08/04 02:06:09;;;;;;;6.40;3.17;;;;;;;21.56;100.00;99706.81;5031404;28;20116;-77
2023/08/04 02:08:34;;;;;;;10.30;3.15;;;;;;;21.56;100.00;99714.75;5028706;28;20090;-77
2023/08/04 02:11:00;;;;;;;9.40;3.08;;;;;;;21.59;100.00;99713.47;5023309;28;20383;-77
2023/08/04 02:13:25;;;;;;;8.85;3.05;;;;;;;21.59;100.00;99708.19;5025666;28;20025;-76
2023/08/04 02:15:50;;;;;;;13.88;3.60;;;;;;;21.60;100.00;99709.78;5019993;28;20105;-77
2023/08/04 02:18:16;;;;;;;8.02;3.15;;;;;;;21.63;100.00;99711.97;5025010;28;21759;-77
2023/08/04 02:20:41;;;;;;;10.82;4.10;;;;;;;21.67;100.00;99713.13;5030220;28;20044;-76
2023/08/04 02:23:07;;;;;;;14.60;3.50;;;;;;;21.68;100.00;99714.72;5019819;28;20037;-77
2023/08/04 02:25:32;;;;;;;9.40;3.38;;;;;;;21.70;100.00;99708.16;5027636;28;20090;-76
2023/08/04 02:27:57;;;;;;;34.53;5.35;;;;;;;21.71;100.00;99712.41;5019265;28;20120;-76
2023/08/04 02:30:23;;;;;;;10.07;3.78;;;;;;;21.71;100.00;99712.41;5024988;28;20120;-77
2023/08/04 02:32:48;;;;;;;10.77;3.80;;;;;;;21.74;100.00;99717.22;5021778;28;20106;-77
2023/08/04 02:35:14;;;;;;;15.52;4.75;;;;;;;21.76;100.00;99714.34;5025357;28;20033;-76
2023/08/04 02:37:39;;;;;;;20.85;4.68;;;;;;;21.77;100.00;99718.59;5029949;28;20044;-77
2023/08/04 02:40:05;;;;;;;13.27;4.22;;;;;;;21.80;100.00;99716.28;5022959;28;20032;-77
2023/08/04 02:42:31;;;;;;;14.57;5.35;;;;;;;21.84;100.00;99716.63;5027531;28;20527;-77
2023/08/04 02:44:57;;;;;;;11.35;4.63;;;;;;;21.88;100.00;99719.59;5022167;28;20153;-77
2023/08/04 02:47:22;;;;;;;8.93;4.25;;;;;;;21.90;100.00;99715.69;5020271;28;20030;-77
2023/08/04 02:49:48;;;;;;;11.63;4.30;;;;;;;21.91;100.00;99719.94;5029903;28;20038;-78
2023/08/04 02:52:16;;;;;;;9.63;3.53;;;;;;;21.94;100.00;99721.31;5025052;28;20036;-76
2023/08/04 02:54:44;;;;;;;16.75;4.65;;;;;;;21.92;100.00;99721.56;5025385;28;20054;-77
2023/08/04 02:57:10;;;;;;;15.85;5.22;;;;;;;21.94;100.00;99726.63;5025757;28;20064;-77
2023/08/04 02:59:36;;;;;;;9.00;3.60;;;;;;;21.98;100.00;99725.09;5024655;28;20112;-77
2023/08/04 03:02:02;;;;;;;13.13;4.88;;;;;;;22.00;100.00;99729.13;5021475;28;20041;-76
2023/08/04 03:04:27;;;;;;;11.10;4.65;;;;;;;22.02;100.00;99728.94;5023215;28;20042;-77
2023/08/04 03:06:53;;;;;;;17.55;4.55;;;;;;;22.01;100.00;99729.94;5024791;28;20033;-77
2023/08/04 03:09:18;;;;;;;9.60;4.60;;;;;;;21.98;100.00;99739.19;5028791;28;20026;-76
2023/08/04 03:11:43;;;;;;;19.85;5.07;;;;;;;21.98;100.00;99735.72;5019522;28;20030;-77
2023/08/04 03:14:09;;;;;;;12.05;4.45;;;;;;;21.96;100.00;99735.94;5030274;28;20202;-76
2023/08/04 03:16:34;;;;;;;12.32;4.90;;;;;;;21.94;100.00;99732.72;5026446;28;20061;-77
2023/08/04 03:19:00;;;;;;;8.98;4.60;;;;;;;21.98;100.00;99736.53;5023630;28;20490;-77
2023/08/04 03:21:25;;;;;;;9.15;4.97;;;;;;;21.97;100.00;99739.41;5034245;28;20029;-77
2023/08/04 03:23:51;;;;;;;9.30;4.20;;;;;;;21.96;100.00;99738.59;5033603;28;20399;-77
2023/08/04 03:26:16;;;;;;;17.42;4.90;;;;;;;21.94;100.00;99740.69;5030354;28;20073;-77
2023/08/04 03:28:41;;;;;;;10.73;4.90;;;;;;;21.94;100.00;99740.69;5027234;28;20116;-77
2023/08/04 03:31:07;;;;;;;10.38;4.28;;;;;;;21.93;100.00;99743.56;5029531;28;20029;-77
2023/08/04 03:33:33;;;;;;;12.20;4.57;;;;;;;21.92;100.00;99742.75;5030773;28;20025;-77
2023/08/04 03:35:58;;;;;;;23.65;4.28;;;;;;;21.89;100.00;99740.59;5032393;28;20037;-77
2023/08/04 03:38:24;;;;;;;9.73;3.83;;;;;;;21.81;100.00;99740.94;5022089;28;20033;-77
2023/08/04 03:40:50;;;;;;;5.18;3.55;;;;;;;21.81;100.00;99743.59;5027272;28;20040;-77
2023/08/04 03:43:15;;;;;;;11.15;4.60;;;;;;;21.81;100.00;99748.91;5032383;28;20037;-77
2023/08/04 03:45:40;;;;;;;8.23;3.83;;;;;;;21.81;100.00;99746.25;5031166;28;20505;-77
2023/08/04 03:48:06;;;;;;;11.98;4.35;;;;;;;21.81;100.00;99751.56;5027431;28;20033;-77
2023/08/04 03:50:31;;;;;;;11.77;4.68;;;;;;;21.86;100.00;99749.00;5028574;28;20108;-78
2023/08/04 03:52:57;;;;;;;13.23;4.55;;;;;;;21.95;100.00;99747.59;5025658;28;20491;-77
2023/08/04 03:55:22;;;;;;;13.98;4.65;;;;;;;21.95;100.00;99752.91;5027145;28;20523;-77
2023/08/04 03:57:48;;;;;;;12.48;5.35;;;;;;;21.95;100.00;99752.09;5024397;28;20500;-77
2023/08/04 04:00:13;;;;;;;14.27;5.82;;;;;;;21.98;100.00;99749.78;5028429;28;20095;-77
2023/08/04 04:02:39;;;;;;;16.80;4.78;;;;;;;21.96;100.00;99754.50;5028647;28;20041;-77
2023/08/04 04:05:05;;;;;;;19.73;4.93;;;;;;;21.93;100.00;99762.94;5030059;28;20037;-76
2023/08/04 04:07:30;;;;;;;14.88;4.47;;;;;;;21.92;100.00;99768.47;5031199;28;20035;-77
2023/08/04 04:09:56;;;;;;;13.85;4.40;;;;;;;21.91;100.00;99767.66;5028427;28;20091;-76
2023/08/04 04:12:21;;;;;;;10.93;5.03;;;;;;;21.97;100.00;99766.72;5028022;28;20066;-77
2023/08/04 04:14:47;;;;;;;13.48;5.50;;;;;;;22.01;100.00;99759.13;5029526;28;20038;-77
2023/08/04 04:17:12;;;;;;;16.35;5.45;;;;;;;22.03;100.00;99755.22;5031107;28;20140;-77
2023/08/04 04:19:38;;;;;;;11.40;5.03;;;;;;;22.04;100.00;99756.81;5028572;28;20037;-77
2023/08/04 04:22:04;;;;;;;12.63;5.18;;;;;;;22.03;100.00;99760.53;5023391;28;20076;-74
2023/08/04 04:24:29;;;;;;;17.63;5.53;;;;;;;22.05;100.00;99768.25;5032431;28;20025;-74
2023/08/04 04:26:55;;;;;;;56.17;7.18;;;;;;;22.03;100.00;99775.63;5043681;28;20052;-74
2023/08/04 04:29:20;;;;;;;19.02;5.63;;;;;;;22.01;100.00;99772.38;5021264;28;20124;-74
2023/08/04 04:31:45;;;;;;;58.03;7.35;;;;;;;22.03;100.00;99780.94;5029429;28;20235;-75
2023/08/04 04:34:11;;;;;;;26.92;6.15;;;;;;;22.01;100.00;99782.97;5022354;28;20120;-75
2023/08/04 04:36:36;;;;;;;12.60;4.85;;;;;;;21.99;100.00;99775.25;5033014;28;20033;-75
2023/08/04 04:39:03;;;;;;;11.93;4.60;;;;;;;21.96;100.00;99786.34;5026850;28;20039;-75
2023/08/04 04:41:29;;;;;;;14.07;4.55;;;;;;;21.98;100.00;99783.44;5032728;28;20033;-75
2023/08/04 04:43:55;;;;;;;11.38;5.10;;;;;;;22.00;100.00;99786.69;5029356;28;20038;-75
2023/08/04 04:46:20;;;;;;;16.35;5.80;;;;;;;22.00;100.00;99776.88;5031076;28;20721;-75
2023/08/04 04:48:45;;;;;;;7.82;4.63;;;;;;;21.98;100.00;99773.66;5024916;28;20111;-75
2023/08/04 04:51:11;;;;;;;15.65;5.68;;;;;;;21.99;100.00;99777.91;5046706;28;20037;-75
2023/08/04 04:53:36;;;;;;;14.65;5.68;;;;;;;22.02;100.00;99776.66;5027573;28;20421;-75
2023/08/04 04:56:01;;;;;;;16.73;5.47;;;;;;;22.03;100.00;99775.63;5029775;28;20053;-75
2023/08/04 04:58:27;;;;;;;9.30;4.95;;;;;;;22.06;100.00;99781.28;5024417;28;20041;-76
2023/08/04 05:01:00;;;;;;;14.65;5.38;;;;;;;22.09;100.00;99786.09;5045377;28;20091;-75
2023/08/04 05:03:25;;;;;;;13.27;6.07;;;;;;;22.11;100.00;99777.91;5023683;28;20128;-75
2023/08/04 05:05:51;;;;;;;12.10;5.20;;;;;;;22.13;100.00;99787.25;5020888;28;20048;-75
2023/08/04 05:08:16;;;;;;;14.60;5.55;;;;;;;22.15;100.00;99798.44;5022125;28;20518;-75
2023/08/04 05:10:41;;;;;;;13.68;5.90;;;;;;;22.20;100.00;99802.22;5025577;28;20041;-78
2023/08/04 05:13:07;;;;;;;16.55;5.85;;;;;;;22.21;100.00;99798.53;5026475;28;20029;-78
2023/08/04 05:15:32;;;;;;;11.23;5.28;;;;;;;22.21;100.00;99798.53;5027984;28;20044;-78
2023/08/04 05:17:58;;;;;;;7.60;4.90;;;;;;;22.23;100.00;99802.53;5028823;28;20148;-78
2023/08/04 05:20:23;;;;;;;11.93;4.38;;;;;;;22.24;100.00;99803.34;5025213;28;20053;-78
2023/08/04 05:22:49;;;;;;;11.25;4.85;;;;;;;22.31;100.00;99804.00;5026383;28;20084;-74
2023/08/04 05:25:15;;;;;;;8.68;4.93;;;;;;;22.31;100.00;99804.00;5031470;28;20511;-74
2023/08/04 05:27:41;;;;;;;9.52;5.45;;;;;;;22.33;100.00;99796.63;5025300;28;20912;-74
2023/08/04 05:30:07;;;;;;;10.38;4.63;;;;;;;22.34;100.00;99809.66;5028630;28;20032;-74
2023/08/04 05:32:32;;;;;;;10.57;5.00;;;;;;;22.32;100.00;99813.56;5023907;28;20172;-74
2023/08/04 05:34:57;;;;;;;13.70;5.00;;;;;;;22.36;100.00;99817.38;5023438;28;20120;-74
2023/08/04 05:37:23;;;;;;;9.57;5.35;;;;;;;22.37;100.00;99816.31;5027580;28;20033;-74
2023/08/04 05:39:49;;;;;;;16.00;5.43;;;;;;;22.41;100.00;99817.47;5031553;28;20102;-74
2023/08/04 05:42:14;;;;;;;10.25;4.80;;;;;;;22.39;100.00;99816.91;5025940;28;20492;-74
2023/08/04 05:44:39;;;;;;;11.55;5.28;;;;;;;22.41;100.00;99817.47;5023653;28;20041;-74
2023/08/04 05:47:05;;;;;;;11.82;4.93;;;;;;;22.47;100.00;99819.97;5024951;28;20033;-74
2023/08/04 05:49:33;;;;;;;8.05;4.47;;;;;;;22.44;100.00;99828.41;5025723;28;20036;-74
2023/08/04 05:51:59;;;;;;;10.73;4.53;;;;;;;22.37;100.00;99822.44;5027250;28;20037;-74
2023/08/04 05:54:25;;;;;;;10.63;4.30;;;;;;;22.39;100.00;99825.66;5025328;28;20037;-74
2023/08/04 05:56:50;;;;;;;12.95;4.70;;;;;;;22.41;100.00;99828.09;5027522;28;20048;-74
2023/08/04 05:59:16;;;;;;;8.55;4.72;;;;;;;22.36;100.00;99839.41;5025408;28;20037;-74
2023/08/04 06:01:41;;;;;;;13.25;5.10;;;;;;;22.34;100.00;99822.91;5022648;28;20033;-74
2023/08/04 06:04:06;;;;;;;11.70;4.93;;;;;;;22.37;100.00;99819.78;5021789;28;20032;-74
2023/08/04 06:06:32;;;;;;;11.23;4.70;;;;;;;22.47;100.00;99824.47;5016791;28;20026;-74
2023/08/04 06:08:57;;;;;;;12.95;5.43;;;;;;;22.56;100.00;99825.72;5027877;28;20065;-74
2023/08/04 06:11:23;;;;;;;8.05;4.47;;;;;;;22.59;100.00;99829.75;5031348;28;20485;-74
2023/08/04 06:13:48;;;;;;;9.02;4.68;;;;;;;22.66;100.00;99827.75;5021921;28;20560;-74
2023/08/04 06:16:14;;;;;;;13.52;5.75;;;;;;;22.70;100.00;99834.16;5025008;28;20508;-74
2023/08/04 06:18:40;;;;;;;10.52;4.57;;;;;;;22.72;100.00;99835.53;5022963;28;20052;-73
2023/08/04 06:21:06;;;;;;;10.35;4.70;;;;;;;22.68;100.00;99828.31;5025120;28;20028;-74
2023/08/04 06:23:31;;;;;;;7.32;5.05;;;;;;;22.61;100.00;99831.13;5027304;28;20037;-74
2023/08/04 06:25:56;;;;;;;6.50;3.55;;;;;;;22.57;100.00;99823.88;5023762;28;20121;-74
2023/08/04 06:28:22;;;;;;;5.90;3.38;;;;;;;22.42;100.00;99819.06;5028971;28;20033;-74
2023/08/04 06:30:47;;;;;;;8.23;3.30;;;;;;;22.40;100.00;99831.78;5026968;28;20059;-74
2023/08/04 06:33:13;;;;;;;6.70;2.78;;;;;;;22.33;100.00;99826.59;5020065;28;20030;-73
2023/08/04 06:35:41;;;;;;;4.82;2.22;;;;;;;22.25;100.00;99820.88;5028640;28;20029;-73
2023/08/04 06:38:08;;;;;;;5.15;2.92;;;;;;;22.22;100.00;99821.34;5028107;28;20488;-74
2023/08/04 06:40:33;;;;;;;4.85;2.08;;;;;;;22.09;100.00;99828.56;5027844;28;20567;-74
2023/08/04 06:42:59;;;;;;;7.45;2.40;;;;;;;21.96;100.00;99830.63;5021912;28;20129;-74
2023/08/04 06:45:25;;;;;;;5.22;2.20;;;;;;;21.92;100.00;99827.63;5023409;28;20095;-72
2023/08/04 06:47:51;;;;;;;4.97;1.77;;;;;;;21.93;100.00;99828.44;5022472;28;20026;-72
2023/08/04 06:50:16;;;;;;;3.90;1.50;;;;;;;21.73;100.00;99828.84;5020184;28;20488;-73
2023/08/04 06:52:42;;;;;;;2.03;1.13;;;;;;;21.63;100.00;99823.31;5021285;28;20041;-72
2023/08/04 06:55:08;;;;;;;1.33;0.75;;;;;;;21.66;100.00;99828.16;5024596;28;20030;-72
2023/08/04 06:57:33;;;;;;;4.28;1.17;;;;;;;21.71;100.00;99820.31;5021652;28;20103;-72
2023/08/04 06:59:58;;;;;;;5.97;1.58;;;;;;;21.73;100.00;99823.53;5022918;28;20130;-72
2023/08/04 07:02:24;;;;;;;4.22;1.50;;;;;;;21.78;100.00;99823.59;5020763;28;20536;-72
2023/08/04 07:04:49;;;;;;;4.68;0.93;;;;;;;21.67;100.00;99824.47;5024071;28;20057;-72
2023/08/04 07:07:15;;;;;;;6.07;1.23;;;;;;;21.51;100.00;99820.66;5023762;28;20030;-72
2023/08/04 07:09:40;;;;;;;2.97;1.15;;;;;;;21.42;100.00;99817.53;5027047;28;20371;-72
2023/08/04 07:12:06;;;;;;;1.92;0.52;;;;;;;21.26;100.00;99805.00;5026478;28;20535;-72
2023/08/04 07:14:32;;;;;;;1.98;0.70;;;;;;;21.12;100.00;99791.13;5020370;28;20565;-72
2023/08/04 07:16:57;;;;;;;3.33;1.05;;;;;;;21.11;100.00;99775.47;5022737;28;20517;-71
2023/08/04 07:19:22;;;;;;;2.35;0.80;;;;;;;21.09;100.00;99775.72;5021472;28;20029;-71
2023/08/04 07:21:48;;;;;;;1.95;0.77;;;;;;;21.05;100.00;99771.91;5027086;28;20121;-71
2023/08/04 07:24:13;;;;;;;0.77;0.40;;;;;;;20.83;100.00;99795.47;5029778;28;20030;-71
2023/08/04 07:26:38;;;;;;;2.00;0.60;;;;;;;20.92;100.00;99803.06;5029902;28;20040;-71
2023/08/04 07:29:04;;;;;;;3.22;0.70;;;;;;;20.83;100.00;99803.41;5019957;28;20025;-71
2023/08/04 07:31:31;;;;;;;5.47;0.70;;;;;;;20.83;100.00;99787.53;5026028;28;20037;-71
2023/08/04 07:33:57;;;;;;;0.63;0.30;;;;;;;20.54;100.00;99798.97;5026768;28;20457;-72
2023/08/04 07:36:22;;;;;;;1.20;0.40;;;;;;;20.31;100.00;99790.94;5023163;28;20072;-72
2023/08/04 07:38:48;;;;;;;1.20;0.50;;;;;;;20.29;100.00;99806.22;5017002;28;20025;-72
2023/08/04 07:41:21;;;;;;;2.85;0.50;;;;;;;20.30;100.00;99787.47;5018998;28;20033;-72
2023/08/04 07:43:47;;;;;;;0.88;0.47;;;;;;;20.34;100.00;99785.97;5019057;28;20033;-72
2023/08/04 07:46:29;;;;;;;1.45;0.50;;;;;;;20.17;100.00;99782.34;5022568;28;20037;-72
2023/08/04 07:48:54;;;;;;;1.38;0.57;;;;;;;20.19;100.00;99785.59;5018672;28;20037;-72
2023/08/04 07:51:21;;;;;;;1.40;0.40;;;;;;;20.13;100.00;99783.84;5021275;28;20566;-72
2023/08/04 07:53:47;;;;;;;1.48;0.40;;;;;;;20.19;100.00;99802.28;5018679;28;20656;-72
2023/08/04 07:56:12;;;;;;;2.70;0.68;;;;;;;20.33;100.00;99812.66;5027716;28;20036;-72
2023/08/04 07:58:38;;;;;;;2.47;0.98;;;;;;;20.35;100.00;99832.56;5016875;28;20042;-72
2023/08/04 08:01:04;;;;;;;2.17;0.80;;;;;;;20.35;100.00;99845.78;5022771;28;20048;-73
2023/08/04 08:03:34;;;;;;;2.55;1.42;;;;;;;20.14;100.00;99880.66;5028395;28;20064;-74
2023/08/04 08:06:01;;;;;;;8.23;1.83;;;;;;;20.19;100.00;99923.13;5023493;28;20037;-73
2023/08/04 08:08:26;;;;;;;8.80;2.20;;;;;;;20.20;100.00;99990.84;5023022;28;20127;-73
2023/08/04 08:10:52;;;;;;;6.13;2.20;;;;;;;20.03;100.00;99984.50;5023352;28;20061;-70
2023/08/04 08:13:18;;;;;;;3.70;1.33;;;;;;;19.63;100.00;99939.13;5027189;28;20103;-70
2023/08/04 08:15:43;;;;;;;1.90;0.70;;;;;;;19.17;100.00;99913.81;5026082;28;20479;-70
2023/08/04 08:18:09;;;;;;;1.00;0.50;;;;;;;18.84;100.00;99824.31;5022331;28;20083;-73
2023/08/04 08:20:34;;;;;;;1.88;0.65;;;;;;;18.70;100.00;99794.56;5026110;28;20040;-69
2023/08/04 08:23:00;;;;;;;2.03;0.40;;;;;;;18.72;100.00;99784.59;5021235;28;20040;-72
2023/08/04 08:25:25;;;;;;;2.13;0.43;;;;;;;18.83;100.00;99820.06;5024778;28;20041;-71
2023/08/04 08:27:51;;;;;;;1.73;0.55;;;;;;;18.94;100.00;99843.09;5023320;28;20088;-73
2023/08/04 08:30:17;;;;;;;5.65;0.68;;;;;;;19.04;100.00;99876.94;5030167;28;20033;-72
2023/08/04 08:32:43;;;;;;;1.58;0.40;;;;;;;19.08;100.00;99917.75;5023327;28;20030;-71
2023/08/04 08:35:08;;;;;;;1.25;0.55;;;;;;;19.17;100.00;99913.81;5025952;28;20380;-73
2023/08/04 08:37:34;;;;;;;1.20;0.70;;;;;;;19.33;100.00;99915.97;5024238;28;20037;-74
2023/08/04 08:39:59;;;;;;;2.33;0.68;;;;;;;19.44;100.00;99922.34;5020866;28;20030;-74
2023/08/04 08:42:25;;;;;;;2.03;0.75;;;;;;;19.52;100.00;99941.44;5021062;28;20038;-74
2023/08/04 08:44:51;;;;;;;3.40;0.80;;;;;;;19.62;100.00;99940.13;5023904;28;20152;-74
2023/08/04 08:47:17;;;;;;;1.85;0.63;;;;;;;19.57;100.00;99934.69;5023827;28;20025;-74
2023/08/04 08:49:51;;;;;;;0.80;0.50;;;;;;;19.33;100.00;99939.72;5026591;28;20478;-74
2023/08/04 08:52:19;;;;;;;1.33;0.45;;;;;;;19.02;100.00;99926.50;5023138;28;20435;-73
2023/08/04 08:54:44;;;;;;;1.02;0.43;;;;;;;18.89;100.00;99915.03;5026199;28;20382;-73
2023/08/04 08:57:10;;;;;;;1.10;0.30;;;;;;;18.94;100.00;99930.22;5020070;28;20038;-73
2023/08/04 08:59:35;;;;;;;1.85;0.38;;;;;;;18.96;100.00;99941.38;5020772;28;20037;-73
2023/08/04 09:02:02;;;;;;;1.20;0.50;;;;;;;18.93;100.00;99951.53;5023068;28;20026;-72
2023/08/04 09:04:33;;;;;;;1.05;0.40;;;;;;;18.89;100.00;99944.06;5020717;28;20171;-72
2023/08/04 09:06:59;;;;;;;1.35;0.50;;;;;;;18.92;100.00;99944.63;5025186;28;20026;-72
2023/08/04 09:09:24;;;;;;;1.33;0.30;;;;;;;18.82;100.00;99931.91;5020684;28;20044;-73
2023/08/04 09:11:51;;;;;;;3.75;0.40;;;;;;;18.77;100.00;99911.44;5019656;28;20034;-72
2023/08/04 09:14:17;;;;;;;2.00;0.40;;;;;;;18.69;100.00;99900.31;5020385;28;20098;-73
2023/08/04 09:16:43;;;;;;;2.05;0.20;;;;;;;18.60;100.00;99928.75;5026118;28;20063;-73
2023/08/04 09:19:09;;;;;;;1.48;0.20;;;;;;;18.57;100.00;99937.88;5031501;28;20108;-73
2023/08/04 09:21:36;;;;;;;1.77;0.13;;;;;;;18.71;100.00;99929.94;5027863;28;20168;-73
2023/08/04 09:24:09;;;;;;;1.17;0.20;;;;;;;18.74;100.00;99924.25;5029792;28;20048;-73
2023/08/04 09:26:46;;;;;;;1.20;0.10;;;;;;;18.70;100.00;99934.41;5030173;28;20520;-74
2023/08/04 09:29:13;;;;;;;2.20;0.20;;;;;;;18.74;100.00;99940.88;5023306;28;20047;-73
2023/08/04 09:31:45;;;;;;;0.40;0.20;;;;;;;18.75;100.00;99953.06;5025952;28;20358;-73
2023/08/04 09:34:10;;;;;;;0.65;0.30;;;;;;;18.81;100.00;99973.34;5022329;28;20022;-73
2023/08/04 09:36:48;;;;;;;1.85;0.10;;;;;;;18.83;100.00;99979.22;5027037;28;20051;-73
2023/08/04 09:39:15;;;;;;;0.30;0.10;;;;;;;18.83;100.00;99987.13;5022619;28;20032;-73
2023/08/04 09:41:45;;;;;;;1.35;0.10;;;;;;;18.65;100.00;99986.19;5024628;28;20033;-74
2023/08/04 09:44:11;;;;;;;1.50;0.00;;;;;;;18.49;100.00;99982.94;5020192;28;20044;-73
2023/08/04 09:46:47;;;;;;;1.42;0.00;;;;;;;18.37;100.00;99973.25;5022800;28;20033;-73
2023/08/04 09:49:13;;;;;;;0.60;0.10;;;;;;;18.39;100.00;99963.31;5024505;28;20033;-73
2023/08/04 09:51:41;;;;;;;0.20;0.00;;;;;;;18.30;100.00;99973.28;5030902;28;20087;-73
2023/08/04 09:54:07;;;;;;;1.88;0.05;;;;;;;18.33;100.00;99987.88;5018459;28;20028;-73
2023/08/04 09:56:33;;;;;;;0.25;0.00;;;;;;;18.42;100.00;100003.28;5026525;28;20056;-73
2023/08/04 09:58:59;;;;;;;0.85;0.00;;;;;;;18.48;100.00;99997.16;5021592;28;20485;-73
2023/08/04 10:01:25;;;;;;;0.47;0.00;;;;;;;18.63;100.00;99998.78;5025825;28;20030;-73
2023/08/04 10:03:54;;;;;;;0.80;0.00;;;;;;;18.64;100.00;100005.66;5020499;28;20112;-73
2023/08/04 10:06:20;;;;;;;2.30;0.10;;;;;;;18.72;100.00;100019.44;5021131;28;20029;-74
2023/08/04 10:08:48;;;;;;;4.18;0.00;;;;;;;18.77;100.00;100030.19;5028014;28;20136;-73
2023/08/04 10:11:13;;;;;;;0.20;0.00;;;;;;;18.63;100.00;100027.78;5026551;28;20045;-73
2023/08/04 10:13:44;;;;;;;0.40;0.00;;;;;;;18.51;100.00;100032.84;5025812;28;20532;-72
2023/08/04 10:16:14;;;;;;;0.30;0.00;;;;;;;18.41;100.00;100029.84;5019398;28;20045;-73
2023/08/04 10:19:00;;;;;;;3.15;0.10;;;;;;;18.38;100.00;99994.16;5028184;28;20068;-73
2023/08/04 10:21:34;;;;;;;0.20;0.00;;;;;;;18.27;100.00;99991.34;5019846;28;20067;-73
2023/08/04 10:24:01;;;;;;;1.85;0.30;;;;;;;18.14;100.00;100013.25;5024623;28;20116;-73
2023/08/04 10:26:27;;;;;;;3.00;0.05;;;;;;;18.12;100.00;100015.28;5029169;28;20493;-73
2023/08/04 10:29:05;;;;;;;0.25;0.00;;;;;;;18.07;100.00;100015.06;5022226;28;20037;-73
2023/08/04 10:31:51;;;;;;;0.30;0.10;;;;;;;18.01;100.00;100043.06;5023520;28;20106;-73
2023/08/04 10:34:25;;;;;;;0.43;0.00;;;;;;;18.15;100.00;100078.97;5021880;28;20517;-73
2023/08/04 10:37:04;;;;;;;3.97;0.00;;;;;;;18.15;100.00;100093.97;5029745;28;20045;-73
2023/08/04 10:39:39;;;;;;;0.28;0.00;;;;;;;18.28;100.00;100117.69;5022743;28;20124;-73
2023/08/04 10:42:09;;;;;;;0.08;0.00;;;;;;;18.21;100.00;100125.59;5029501;28;20037;-74
2023/08/04 10:45:04;;;;;;;1.27;0.00;;;;;;;18.07;100.00;100136.34;5021132;28;20560;-73
2023/08/04 10:47:40;;;;;;;0.10;0.00;;;;;;;17.92;100.00;100131.28;5023996;28;20041;-74
2023/08/04 10:50:07;;;;;;;2.28;0.00;;;;;;;17.84;100.00;100131.44;5022357;28;20056;-73
2023/08/04 10:52:33;;;;;;;0.55;0.05;;;;;;;17.82;100.00;100125.56;5024370;28;20034;-73
2023/08/04 10:54:59;;;;;;;1.83;0.00;;;;;;;17.80;100.00;100112.59;5018925;28;20025;-73
2023/08/04 10:57:28;;;;;;;0.70;0.00;;;;;;;17.78;100.00;100058.47;5021458;28;20090;-72
2023/08/04 10:59:54;;;;;;;0.47;0.17;;;;;;;17.81;100.00;100040.44;5021222;28;20084;-72
2023/08/04 11:02:21;;;;;;;0.50;0.05;;;;;;;17.82;100.00;100015.72;5019603;28;20029;-72
2023/08/04 11:04:47;;;;;;;2.15;0.10;;;;;;;17.74;100.00;100004.56;5021323;28;20026;-73
2023/08/04 11:07:14;;;;;;;1.25;0.08;;;;;;;17.75;100.00;100008.81;5025833;28;20040;-71
2023/08/04 11:09:40;;;;;;;0.20;0.08;;;;;;;17.78;100.00;99992.59;5022943;28;20132;-71
2023/08/04 11:12:06;;;;;;;0.90;0.10;;;;;;;17.86;100.00;99981.84;5018883;28;20500;-71
2023/08/04 11:14:33;;;;;;;2.50;0.00;;;;;;;17.90;100.00;99988.34;5025149;28;20086;-71
2023/08/04 11:17:01;;;;;;;1.42;0.10;;;;;;;17.98;100.00;99990.75;5021986;28;20137;-72
2023/08/04 11:19:28;;;;;;;0.50;0.20;;;;;;;18.23;100.00;99997.00;5021601;28;20040;-72